sensor_id;sensor_type;location;lat;lon;timestamp;temperature;humidity
16801;DHT22;8518;53.236;10.384;2022-10-26T00:01:09;9.10;99.90
16801;DHT22;8518;53.236;10.384;2022-10-26T00:03:36;9.10;99.90
16801;DHT22;8518;53.236;10.384;2022-10-26T00:06:07;9.10;99.90
16801;DHT22;8518;53.236;10.384;2022-10-26T00:08:34;9.10;99.90
16801;DHT22;8518;53.236;10.384;2022-10-26T00:10:59;9.10;99.90
16801;DHT22;8518;53.236;10.384;2022-10-26T00:13:25;9.10;99.90
16801;DHT22;8518;53.236;10.384;2022-10-26T00:15:51;9.10;99.90
16801;DHT22;8518;53.236;10.384;2022-10-26T00:18:17;9.10;99.90
16801;DHT22;8518;53.236;10.384;2022-10-26T00:20:42;9.10;99.90
16801;DHT22;8518;53.236;10.384;2022-10-26T00:23:08;9.10;99.90
16801;DHT22;8518;53.236;10.384;2022-10-26T00:25:33;9.10;99.90
16801;DHT22;8518;53.236;10.384;2022-10-26T00:27:59;9.00;99.90
16801;DHT22;8518;53.236;10.384;2022-10-26T00:30:25;9.00;99.90
16801;DHT22;8518;53.236;10.384;2022-10-26T00:32:50;9.00;99.90
16801;DHT22;8518;53.236;10.384;2022-10-26T00:35:16;9.00;99.90
16801;DHT22;8518;53.236;10.384;2022-10-26T00:37:42;9.00;99.90
16801;DHT22;8518;53.236;10.384;2022-10-26T00:40:08;9.00;99.90
16801;DHT22;8518;53.236;10.384;2022-10-26T00:42:33;8.90;99.90
16801;DHT22;8518;53.236;10.384;2022-10-26T00:47:52;8.90;99.90
16801;DHT22;8518;53.236;10.384;2022-10-26T00:50:27;8.80;99.90
16801;DHT22;8518;53.236;10.384;2022-10-26T00:52:55;8.80;99.90
16801;DHT22;8518;53.236;10.384;2022-10-26T00:55:26;8.80;99.90
16801;DHT22;8518;53.236;10.384;2022-10-26T00:57:52;8.80;99.90
16801;DHT22;8518;53.236;10.384;2022-10-26T01:00:18;8.80;99.90
16801;DHT22;8518;53.236;10.384;2022-10-26T01:02:46;8.70;99.90
16801;DHT22;8518;53.236;10.384;2022-10-26T01:05:14;8.70;99.90
16801;DHT22;8518;53.236;10.384;2022-10-26T01:07:42;8.70;99.90
16801;DHT22;8518;53.236;10.384;2022-10-26T01:10:09;8.70;99.90
16801;DHT22;8518;53.236;10.384;2022-10-26T01:12:35;8.60;99.90
16801;DHT22;8518;53.236;10.384;2022-10-26T01:15:02;8.70;99.90
16801;DHT22;8518;53.236;10.384;2022-10-26T01:26:31;8.50;99.90
16801;DHT22;8518;53.236;10.384;2022-10-26T01:29:00;8.50;99.90
16801;DHT22;8518;53.236;10.384;2022-10-26T01:31:29;8.50;99.90
16801;DHT22;8518;53.236;10.384;2022-10-26T01:34:07;8.50;99.90
16801;DHT22;8518;53.236;10.384;2022-10-26T01:36:54;8.50;99.90
16801;DHT22;8518;53.236;10.384;2022-10-26T01:41:48;8.50;99.90
16801;DHT22;8518;53.236;10.384;2022-10-26T01:44:55;8.50;99.90
16801;DHT22;8518;53.236;10.384;2022-10-26T01:47:22;8.40;99.90
16801;DHT22;8518;53.236;10.384;2022-10-26T01:49:54;8.40;99.90
16801;DHT22;8518;53.236;10.384;2022-10-26T01:52:22;8.40;99.90
16801;DHT22;8518;53.236;10.384;2022-10-26T01:54:48;8.40;99.90
16801;DHT22;8518;53.236;10.384;2022-10-26T01:57:17;8.40;99.90
16801;DHT22;8518;53.236;10.384;2022-10-26T02:00:12;8.40;99.90
16801;DHT22;8518;53.236;10.384;2022-10-26T02:03:08;8.40;99.90
16801;DHT22;8518;53.236;10.384;2022-10-26T02:05:44;8.40;99.90
16801;DHT22;8518;53.236;10.384;2022-10-26T02:14:13;8.30;99.90
16801;DHT22;8518;53.236;10.384;2022-10-26T02:16:51;8.30;99.90
16801;DHT22;8518;53.236;10.384;2022-10-26T02:22:26;8.30;99.90
16801;DHT22;8518;53.236;10.384;2022-10-26T02:24:53;8.20;99.90
16801;DHT22;8518;53.236;10.384;2022-10-26T02:27:26;8.30;99.90
16801;DHT22;8518;53.236;10.384;2022-10-26T02:29:55;8.20;99.90
16801;DHT22;8518;53.236;10.384;2022-10-26T02:32:26;8.20;99.90
16801;DHT22;8518;53.236;10.384;2022-10-26T02:34:58;8.20;99.90
16801;DHT22;8518;53.236;10.384;2022-10-26T02:37:26;8.20;99.90
16801;DHT22;8518;53.236;10.384;2022-10-26T02:39:54;8.20;99.90
16801;DHT22;8518;53.236;10.384;2022-10-26T02:42:23;8.20;99.90
16801;DHT22;8518;53.236;10.384;2022-10-26T02:44:58;8.20;99.90
16801;DHT22;8518;53.236;10.384;2022-10-26T02:47:25;8.20;99.90
16801;DHT22;8518;53.236;10.384;2022-10-26T02:49:51;8.20;99.90
16801;DHT22;8518;53.236;10.384;2022-10-26T02:52:42;8.20;99.90
16801;DHT22;8518;53.236;10.384;2022-10-26T02:55:21;8.20;99.90
16801;DHT22;8518;53.236;10.384;2022-10-26T02:57:52;8.20;99.90
16801;DHT22;8518;53.236;10.384;2022-10-26T03:00:18;8.20;99.90
16801;DHT22;8518;53.236;10.384;2022-10-26T03:02:51;8.20;99.90
16801;DHT22;8518;53.236;10.384;2022-10-26T03:05:25;8.20;99.90
16801;DHT22;8518;53.236;10.384;2022-10-26T03:07:52;8.20;99.90
16801;DHT22;8518;53.236;10.384;2022-10-26T03:10:18;8.10;99.90
16801;DHT22;8518;53.236;10.384;2022-10-26T03:12:44;8.10;99.90
16801;DHT22;8518;53.236;10.384;2022-10-26T03:15:09;8.10;99.90
16801;DHT22;8518;53.236;10.384;2022-10-26T03:17:35;8.10;99.90
16801;DHT22;8518;53.236;10.384;2022-10-26T03:20:01;8.10;99.90
16801;DHT22;8518;53.236;10.384;2022-10-26T03:22:26;8.10;99.90
16801;DHT22;8518;53.236;10.384;2022-10-26T03:24:52;8.10;99.90
16801;DHT22;8518;53.236;10.384;2022-10-26T03:27:18;8.00;99.90
16801;DHT22;8518;53.236;10.384;2022-10-26T03:29:43;8.00;99.90
16801;DHT22;8518;53.236;10.384;2022-10-26T03:32:09;7.90;99.90
16801;DHT22;8518;53.236;10.384;2022-10-26T03:34:34;7.90;99.90
16801;DHT22;8518;53.236;10.384;2022-10-26T03:37:00;7.90;99.90
16801;DHT22;8518;53.236;10.384;2022-10-26T03:39:26;7.90;99.90
16801;DHT22;8518;53.236;10.384;2022-10-26T03:41:51;7.90;99.90
16801;DHT22;8518;53.236;10.384;2022-10-26T03:44:17;7.90;99.90
16801;DHT22;8518;53.236;10.384;2022-10-26T03:46:43;7.90;99.90
16801;DHT22;8518;53.236;10.384;2022-10-26T03:49:08;7.90;99.90
16801;DHT22;8518;53.236;10.384;2022-10-26T03:51:34;7.90;99.90
16801;DHT22;8518;53.236;10.384;2022-10-26T03:54:00;8.00;99.90
16801;DHT22;8518;53.236;10.384;2022-10-26T03:56:25;7.90;99.90
16801;DHT22;8518;53.236;10.384;2022-10-26T03:58:51;7.90;99.90
16801;DHT22;8518;53.236;10.384;2022-10-26T04:01:16;7.90;99.90
16801;DHT22;8518;53.236;10.384;2022-10-26T04:03:42;7.90;99.90
16801;DHT22;8518;53.236;10.384;2022-10-26T04:06:08;7.90;99.90
16801;DHT22;8518;53.236;10.384;2022-10-26T04:08:33;7.90;99.90
16801;DHT22;8518;53.236;10.384;2022-10-26T04:10:59;7.90;99.90
16801;DHT22;8518;53.236;10.384;2022-10-26T04:13:24;7.80;99.90
16801;DHT22;8518;53.236;10.384;2022-10-26T04:15:50;7.80;99.90
16801;DHT22;8518;53.236;10.384;2022-10-26T04:18:16;7.80;99.90
16801;DHT22;8518;53.236;10.384;2022-10-26T04:20:41;7.90;99.90
16801;DHT22;8518;53.236;10.384;2022-10-26T04:23:12;7.90;99.90
16801;DHT22;8518;53.236;10.384;2022-10-26T04:25:37;8.00;99.90
16801;DHT22;8518;53.236;10.384;2022-10-26T04:28:04;7.90;99.90
16801;DHT22;8518;53.236;10.384;2022-10-26T04:30:31;7.90;99.90
16801;DHT22;8518;53.236;10.384;2022-10-26T04:32:57;7.90;99.90
16801;DHT22;8518;53.236;10.384;2022-10-26T04:35:22;7.90;99.90
16801;DHT22;8518;53.236;10.384;2022-10-26T04:37:48;7.90;99.90
16801;DHT22;8518;53.236;10.384;2022-10-26T04:40:14;7.90;99.90
16801;DHT22;8518;53.236;10.384;2022-10-26T04:42:45;8.00;99.90
16801;DHT22;8518;53.236;10.384;2022-10-26T04:45:12;8.10;99.90
16801;DHT22;8518;53.236;10.384;2022-10-26T04:47:39;8.00;99.90
16801;DHT22;8518;53.236;10.384;2022-10-26T04:50:05;8.00;99.90
16801;DHT22;8518;53.236;10.384;2022-10-26T04:52:32;8.00;99.90
16801;DHT22;8518;53.236;10.384;2022-10-26T04:54:57;8.00;99.90
16801;DHT22;8518;53.236;10.384;2022-10-26T04:57:23;8.00;99.90
16801;DHT22;8518;53.236;10.384;2022-10-26T04:59:49;8.00;99.90
16801;DHT22;8518;53.236;10.384;2022-10-26T05:02:14;8.00;99.90
16801;DHT22;8518;53.236;10.384;2022-10-26T05:04:40;8.00;99.90
16801;DHT22;8518;53.236;10.384;2022-10-26T05:07:05;8.00;99.90
16801;DHT22;8518;53.236;10.384;2022-10-26T05:09:31;8.00;99.90
16801;DHT22;8518;53.236;10.384;2022-10-26T05:12:00;8.00;99.90
16801;DHT22;8518;53.236;10.384;2022-10-26T05:14:26;7.90;99.90
16801;DHT22;8518;53.236;10.384;2022-10-26T05:16:51;7.90;99.90
16801;DHT22;8518;53.236;10.384;2022-10-26T05:19:19;7.90;99.90
16801;DHT22;8518;53.236;10.384;2022-10-26T05:21:45;7.90;99.90
16801;DHT22;8518;53.236;10.384;2022-10-26T05:24:11;7.90;99.90
16801;DHT22;8518;53.236;10.384;2022-10-26T05:26:37;7.80;99.90
16801;DHT22;8518;53.236;10.384;2022-10-26T05:29:02;7.80;99.90
16801;DHT22;8518;53.236;10.384;2022-10-26T05:31:28;7.70;99.90
16801;DHT22;8518;53.236;10.384;2022-10-26T05:33:53;7.60;99.90
16801;DHT22;8518;53.236;10.384;2022-10-26T05:36:19;7.70;99.90
16801;DHT22;8518;53.236;10.384;2022-10-26T05:38:46;7.60;99.90
16801;DHT22;8518;53.236;10.384;2022-10-26T05:41:11;7.60;99.90
16801;DHT22;8518;53.236;10.384;2022-10-26T05:43:38;7.60;99.90
16801;DHT22;8518;53.236;10.384;2022-10-26T05:46:03;7.70;99.90
16801;DHT22;8518;53.236;10.384;2022-10-26T05:48:29;7.70;99.90
16801;DHT22;8518;53.236;10.384;2022-10-26T05:50:58;7.70;99.90
16801;DHT22;8518;53.236;10.384;2022-10-26T05:53:24;7.70;99.90
16801;DHT22;8518;53.236;10.384;2022-10-26T05:55:50;7.80;99.90
16801;DHT22;8518;53.236;10.384;2022-10-26T05:58:16;7.80;99.90
16801;DHT22;8518;53.236;10.384;2022-10-26T06:01:07;7.80;99.90
16801;DHT22;8518;53.236;10.384;2022-10-26T06:04:18;7.80;99.90
16801;DHT22;8518;53.236;10.384;2022-10-26T06:06:52;7.80;99.90
16801;DHT22;8518;53.236;10.384;2022-10-26T06:09:19;7.80;99.90
16801;DHT22;8518;53.236;10.384;2022-10-26T06:11:45;7.80;99.90
16801;DHT22;8518;53.236;10.384;2022-10-26T06:14:11;7.80;99.90
16801;DHT22;8518;53.236;10.384;2022-10-26T06:22:35;7.80;99.90
16801;DHT22;8518;53.236;10.384;2022-10-26T06:30:06;7.80;99.90
16801;DHT22;8518;53.236;10.384;2022-10-26T06:32:34;7.90;99.90
16801;DHT22;8518;53.236;10.384;2022-10-26T06:38:02;8.40;99.90
16801;DHT22;8518;53.236;10.384;2022-10-26T06:40:31;8.60;99.90
16801;DHT22;8518;53.236;10.384;2022-10-26T06:43:00;8.90;99.90
16801;DHT22;8518;53.236;10.384;2022-10-26T06:45:25;9.60;99.90
16801;DHT22;8518;53.236;10.384;2022-10-26T06:48:09;10.30;99.90
16801;DHT22;8518;53.236;10.384;2022-10-26T06:50:51;10.70;99.90
16801;DHT22;8518;53.236;10.384;2022-10-26T06:53:52;11.30;99.90
16801;DHT22;8518;53.236;10.384;2022-10-26T06:56:21;12.10;99.90
16801;DHT22;8518;53.236;10.384;2022-10-26T06:58:49;13.00;99.90
16801;DHT22;8518;53.236;10.384;2022-10-26T07:01:16;13.80;99.90
16801;DHT22;8518;53.236;10.384;2022-10-26T07:03:42;14.60;99.90
16801;DHT22;8518;53.236;10.384;2022-10-26T07:06:08;15.20;99.90
16801;DHT22;8518;53.236;10.384;2022-10-26T07:08:34;15.80;99.90
16801;DHT22;8518;53.236;10.384;2022-10-26T07:10:59;16.50;99.90
16801;DHT22;8518;53.236;10.384;2022-10-26T07:13:25;17.30;99.90
16801;DHT22;8518;53.236;10.384;2022-10-26T07:15:50;18.20;99.90
16801;DHT22;8518;53.236;10.384;2022-10-26T07:18:16;19.00;99.90
16801;DHT22;8518;53.236;10.384;2022-10-26T07:20:42;19.80;99.90
16801;DHT22;8518;53.236;10.384;2022-10-26T07:23:09;20.60;99.90
16801;DHT22;8518;53.236;10.384;2022-10-26T07:25:37;21.20;99.90
16801;DHT22;8518;53.236;10.384;2022-10-26T07:28:09;21.60;99.90
16801;DHT22;8518;53.236;10.384;2022-10-26T07:30:35;22.20;99.90
16801;DHT22;8518;53.236;10.384;2022-10-26T07:33:04;22.80;99.90
16801;DHT22;8518;53.236;10.384;2022-10-26T07:35:32;23.30;98.50
16801;DHT22;8518;53.236;10.384;2022-10-26T07:37:58;23.80;97.10
16801;DHT22;8518;53.236;10.384;2022-10-26T07:40:24;24.50;95.40
16801;DHT22;8518;53.236;10.384;2022-10-26T07:42:49;25.10;93.40
16801;DHT22;8518;53.236;10.384;2022-10-26T07:45:15;25.70;90.10
16801;DHT22;8518;53.236;10.384;2022-10-26T07:47:41;26.30;84.80
16801;DHT22;8518;53.236;10.384;2022-10-26T07:50:06;26.70;81.80
16801;DHT22;8518;53.236;10.384;2022-10-26T07:52:33;26.80;78.40
16801;DHT22;8518;53.236;10.384;2022-10-26T07:55:00;26.70;75.60
16801;DHT22;8518;53.236;10.384;2022-10-26T07:57:25;26.20;77.60
16801;DHT22;8518;53.236;10.384;2022-10-26T07:59:51;25.70;79.10
16801;DHT22;8518;53.236;10.384;2022-10-26T08:02:17;25.20;79.60
16801;DHT22;8518;53.236;10.384;2022-10-26T08:04:43;24.00;86.20
16801;DHT22;8518;53.236;10.384;2022-10-26T08:07:09;23.70;90.40
16801;DHT22;8518;53.236;10.384;2022-10-26T08:09:34;24.00;91.70
16801;DHT22;8518;53.236;10.384;2022-10-26T08:12:00;24.50;88.80
16801;DHT22;8518;53.236;10.384;2022-10-26T08:14:25;25.30;87.40
16801;DHT22;8518;53.236;10.384;2022-10-26T08:16:51;26.20;84.60
16801;DHT22;8518;53.236;10.384;2022-10-26T08:19:18;27.00;80.10
16801;DHT22;8518;53.236;10.384;2022-10-26T08:21:43;27.10;77.60
16801;DHT22;8518;53.236;10.384;2022-10-26T08:24:09;26.90;79.70
16801;DHT22;8518;53.236;10.384;2022-10-26T08:26:35;27.60;78.00
16801;DHT22;8518;53.236;10.384;2022-10-26T08:29:01;27.60;73.80
16801;DHT22;8518;53.236;10.384;2022-10-26T08:31:26;27.50;75.80
16801;DHT22;8518;53.236;10.384;2022-10-26T08:33:52;26.90;75.10
16801;DHT22;8518;53.236;10.384;2022-10-26T08:36:23;25.90;78.70
16801;DHT22;8518;53.236;10.384;2022-10-26T08:38:50;25.60;81.30
16801;DHT22;8518;53.236;10.384;2022-10-26T08:41:16;25.30;84.60
16801;DHT22;8518;53.236;10.384;2022-10-26T08:43:48;25.30;84.20
16801;DHT22;8518;53.236;10.384;2022-10-26T08:46:24;26.20;83.80
16801;DHT22;8518;53.236;10.384;2022-10-26T08:49:01;26.50;79.70
16801;DHT22;8518;53.236;10.384;2022-10-26T08:51:31;27.10;79.20
16801;DHT22;8518;53.236;10.384;2022-10-26T08:56:44;27.90;76.20
16801;DHT22;8518;53.236;10.384;2022-10-26T09:01:49;29.20;71.00
16801;DHT22;8518;53.236;10.384;2022-10-26T09:04:15;29.80;68.10
16801;DHT22;8518;53.236;10.384;2022-10-26T09:06:48;29.60;65.30
16801;DHT22;8518;53.236;10.384;2022-10-26T09:09:22;29.10;67.00
16801;DHT22;8518;53.236;10.384;2022-10-26T09:12:12;29.40;66.60
16801;DHT22;8518;53.236;10.384;2022-10-26T09:26:13;30.10;64.80
16801;DHT22;8518;53.236;10.384;2022-10-26T09:28:40;29.90;64.60
16801;DHT22;8518;53.236;10.384;2022-10-26T09:31:12;30.00;64.70
16801;DHT22;8518;53.236;10.384;2022-10-26T09:33:39;29.80;64.00
16801;DHT22;8518;53.236;10.384;2022-10-26T09:36:23;30.30;63.40
16801;DHT22;8518;53.236;10.384;2022-10-26T09:41:56;31.60;60.00
16801;DHT22;8518;53.236;10.384;2022-10-26T09:44:30;32.30;59.20
16801;DHT22;8518;53.236;10.384;2022-10-26T09:47:26;33.00;58.00
16801;DHT22;8518;53.236;10.384;2022-10-26T09:49:57;33.10;56.00
16801;DHT22;8518;53.236;10.384;2022-10-26T09:52:25;32.60;56.80
16801;DHT22;8518;53.236;10.384;2022-10-26T09:54:50;32.30;56.50
16801;DHT22;8518;53.236;10.384;2022-10-26T09:57:18;32.00;56.80
16801;DHT22;8518;53.236;10.384;2022-10-26T09:59:45;32.10;57.00
16801;DHT22;8518;53.236;10.384;2022-10-26T10:02:32;31.60;56.90
16801;DHT22;8518;53.236;10.384;2022-10-26T10:04:58;31.40;58.70
16801;DHT22;8518;53.236;10.384;2022-10-26T10:07:24;32.10;57.90
16801;DHT22;8518;53.236;10.384;2022-10-26T10:10:07;32.90;57.00
16801;DHT22;8518;53.236;10.384;2022-10-26T10:12:33;32.70;55.80
16801;DHT22;8518;53.236;10.384;2022-10-26T10:14:59;31.90;56.50
16801;DHT22;8518;53.236;10.384;2022-10-26T10:17:24;31.70;57.80
16801;DHT22;8518;53.236;10.384;2022-10-26T10:19:50;32.00;57.60
16801;DHT22;8518;53.236;10.384;2022-10-26T10:24:58;31.70;58.20
16801;DHT22;8518;53.236;10.384;2022-10-26T10:27:25;31.70;57.50
16801;DHT22;8518;53.236;10.384;2022-10-26T10:29:54;31.70;58.00
16801;DHT22;8518;53.236;10.384;2022-10-26T10:34:55;31.50;57.70
16801;DHT22;8518;53.236;10.384;2022-10-26T10:37:38;31.60;59.00
16801;DHT22;8518;53.236;10.384;2022-10-26T10:40:23;31.60;58.20
16801;DHT22;8518;53.236;10.384;2022-10-26T10:42:52;31.50;57.90
16801;DHT22;8518;53.236;10.384;2022-10-26T10:45:19;31.60;58.20
16801;DHT22;8518;53.236;10.384;2022-10-26T10:50:23;32.20;57.30
16801;DHT22;8518;53.236;10.384;2022-10-26T10:52:49;31.80;57.20
16801;DHT22;8518;53.236;10.384;2022-10-26T10:55:21;30.80;58.70
16801;DHT22;8518;53.236;10.384;2022-10-26T11:00:23;28.50;66.00
16801;DHT22;8518;53.236;10.384;2022-10-26T11:08:43;29.40;65.30
16801;DHT22;8518;53.236;10.384;2022-10-26T11:11:28;30.30;63.90
16801;DHT22;8518;53.236;10.384;2022-10-26T11:14:05;30.80;62.60
16801;DHT22;8518;53.236;10.384;2022-10-26T11:16:42;31.80;60.30
16801;DHT22;8518;53.236;10.384;2022-10-26T11:19:47;32.60;58.00
16801;DHT22;8518;53.236;10.384;2022-10-26T11:22:25;33.10;56.70
16801;DHT22;8518;53.236;10.384;2022-10-26T11:25:17;33.40;56.20
16801;DHT22;8518;53.236;10.384;2022-10-26T11:27:55;33.20;56.40
16801;DHT22;8518;53.236;10.384;2022-10-26T11:30:23;34.10;55.30
16801;DHT22;8518;53.236;10.384;2022-10-26T11:33:14;34.90;54.20
16801;DHT22;8518;53.236;10.384;2022-10-26T11:38:32;35.90;51.30
16801;DHT22;8518;53.236;10.384;2022-10-26T11:41:11;35.00;51.50
16801;DHT22;8518;53.236;10.384;2022-10-26T11:43:47;34.60;52.40
16801;DHT22;8518;53.236;10.384;2022-10-26T11:54:33;33.80;53.30
16801;DHT22;8518;53.236;10.384;2022-10-26T11:57:00;33.80;53.20
16801;DHT22;8518;53.236;10.384;2022-10-26T11:59:30;33.30;53.80
16801;DHT22;8518;53.236;10.384;2022-10-26T12:02:05;33.70;53.60
16801;DHT22;8518;53.236;10.384;2022-10-26T12:04:36;33.80;53.30
16801;DHT22;8518;53.236;10.384;2022-10-26T12:07:09;33.70;53.10
16801;DHT22;8518;53.236;10.384;2022-10-26T12:09:38;33.80;53.80
16801;DHT22;8518;53.236;10.384;2022-10-26T12:14:45;33.90;53.50
16801;DHT22;8518;53.236;10.384;2022-10-26T12:17:25;34.10;53.20
16801;DHT22;8518;53.236;10.384;2022-10-26T12:23:11;32.90;53.90
16801;DHT22;8518;53.236;10.384;2022-10-26T12:25:37;33.10;55.10
16801;DHT22;8518;53.236;10.384;2022-10-26T12:28:03;33.60;54.70
16801;DHT22;8518;53.236;10.384;2022-10-26T12:30:33;33.60;53.20
16801;DHT22;8518;53.236;10.384;2022-10-26T12:33:28;33.20;53.50
16801;DHT22;8518;53.236;10.384;2022-10-26T12:35:54;32.30;54.80
16801;DHT22;8518;53.236;10.384;2022-10-26T12:43:39;30.40;60.10
16801;DHT22;8518;53.236;10.384;2022-10-26T12:56:27;30.60;58.90
16801;DHT22;8518;53.236;10.384;2022-10-26T12:59:01;29.80;61.60
16801;DHT22;8518;53.236;10.384;2022-10-26T13:02:16;29.30;63.20
16801;DHT22;8518;53.236;10.384;2022-10-26T13:07:39;29.80;64.80
16801;DHT22;8518;53.236;10.384;2022-10-26T13:15:23;28.10;67.70
16801;DHT22;8518;53.236;10.384;2022-10-26T13:18:17;26.20;75.70
16801;DHT22;8518;53.236;10.384;2022-10-26T13:23:32;23.70;93.10
16801;DHT22;8518;53.236;10.384;2022-10-26T13:26:13;23.00;97.00
16801;DHT22;8518;53.236;10.384;2022-10-26T13:33:51;21.40;99.90
16801;DHT22;8518;53.236;10.384;2022-10-26T13:36:37;21.00;99.90
16801;DHT22;8518;53.236;10.384;2022-10-26T13:39:17;20.80;99.90
16801;DHT22;8518;53.236;10.384;2022-10-26T13:41:45;20.50;99.90
16801;DHT22;8518;53.236;10.384;2022-10-26T13:44:32;20.40;99.90
16801;DHT22;8518;53.236;10.384;2022-10-26T13:47:16;20.20;99.90
16801;DHT22;8518;53.236;10.384;2022-10-26T13:49:47;20.10;99.90
16801;DHT22;8518;53.236;10.384;2022-10-26T13:52:37;20.00;99.90
16801;DHT22;8518;53.236;10.384;2022-10-26T13:55:31;19.80;99.90
16801;DHT22;8518;53.236;10.384;2022-10-26T14:00:30;19.70;99.90
16801;DHT22;8518;53.236;10.384;2022-10-26T14:02:55;19.60;99.90
16801;DHT22;8518;53.236;10.384;2022-10-26T14:05:22;19.70;99.90
16801;DHT22;8518;53.236;10.384;2022-10-26T14:07:55;19.70;99.90
16801;DHT22;8518;53.236;10.384;2022-10-26T14:12:47;20.00;99.90
16801;DHT22;8518;53.236;10.384;2022-10-26T14:15:14;20.30;99.90
16801;DHT22;8518;53.236;10.384;2022-10-26T14:17:40;20.80;99.90
16801;DHT22;8518;53.236;10.384;2022-10-26T14:20:06;21.30;99.90
16801;DHT22;8518;53.236;10.384;2022-10-26T14:22:42;21.40;99.90
16801;DHT22;8518;53.236;10.384;2022-10-26T14:25:28;21.30;99.90
16801;DHT22;8518;53.236;10.384;2022-10-26T14:27:56;21.00;99.90
16801;DHT22;8518;53.236;10.384;2022-10-26T14:30:32;20.60;99.90
16801;DHT22;8518;53.236;10.384;2022-10-26T14:32:58;20.20;99.90
16801;DHT22;8518;53.236;10.384;2022-10-26T14:35:33;19.90;99.90
16801;DHT22;8518;53.236;10.384;2022-10-26T14:38:02;19.60;99.90
16801;DHT22;8518;53.236;10.384;2022-10-26T14:40:34;19.50;99.90
16801;DHT22;8518;53.236;10.384;2022-10-26T14:43:01;19.40;99.90
16801;DHT22;8518;53.236;10.384;2022-10-26T14:45:36;19.60;99.90
16801;DHT22;8518;53.236;10.384;2022-10-26T14:48:05;19.70;99.90
16801;DHT22;8518;53.236;10.384;2022-10-26T14:50:32;19.80;99.90
16801;DHT22;8518;53.236;10.384;2022-10-26T14:53:14;19.80;99.90
16801;DHT22;8518;53.236;10.384;2022-10-26T14:55:51;19.70;99.90
16801;DHT22;8518;53.236;10.384;2022-10-26T14:58:27;19.50;99.90
16801;DHT22;8518;53.236;10.384;2022-10-26T15:01:15;19.30;99.90
16801;DHT22;8518;53.236;10.384;2022-10-26T15:03:43;19.20;99.90
16801;DHT22;8518;53.236;10.384;2022-10-26T15:08:58;19.10;99.90
16801;DHT22;8518;53.236;10.384;2022-10-26T15:11:27;19.00;99.90
16801;DHT22;8518;53.236;10.384;2022-10-26T15:13:54;18.90;99.90
16801;DHT22;8518;53.236;10.384;2022-10-26T15:16:24;18.90;99.90
16801;DHT22;8518;53.236;10.384;2022-10-26T15:18:57;18.90;99.90
16801;DHT22;8518;53.236;10.384;2022-10-26T15:21:34;18.80;99.90
16801;DHT22;8518;53.236;10.384;2022-10-26T15:24:01;18.60;99.90
16801;DHT22;8518;53.236;10.384;2022-10-26T15:26:28;18.50;99.90
16801;DHT22;8518;53.236;10.384;2022-10-26T15:28:54;18.40;99.90
16801;DHT22;8518;53.236;10.384;2022-10-26T15:34:13;18.10;99.90
16801;DHT22;8518;53.236;10.384;2022-10-26T15:36:39;17.90;99.90
16801;DHT22;8518;53.236;10.384;2022-10-26T15:39:05;17.70;99.90
16801;DHT22;8518;53.236;10.384;2022-10-26T15:41:34;17.60;99.90
16801;DHT22;8518;53.236;10.384;2022-10-26T15:44:02;17.50;99.90
16801;DHT22;8518;53.236;10.384;2022-10-26T15:46:33;17.30;99.90
16801;DHT22;8518;53.236;10.384;2022-10-26T15:49:02;17.20;99.90
16801;DHT22;8518;53.236;10.384;2022-10-26T15:51:28;17.10;99.90
16801;DHT22;8518;53.236;10.384;2022-10-26T15:53:56;16.90;99.90
16801;DHT22;8518;53.236;10.384;2022-10-26T15:56:24;16.80;99.90
16801;DHT22;8518;53.236;10.384;2022-10-26T15:58:50;16.60;99.90
16801;DHT22;8518;53.236;10.384;2022-10-26T16:01:21;16.50;99.90
16801;DHT22;8518;53.236;10.384;2022-10-26T16:03:48;16.30;99.90
16801;DHT22;8518;53.236;10.384;2022-10-26T16:08:52;16.10;99.90
16801;DHT22;8518;53.236;10.384;2022-10-26T16:11:20;16.10;99.90
16801;DHT22;8518;53.236;10.384;2022-10-26T16:13:46;15.90;99.90
16801;DHT22;8518;53.236;10.384;2022-10-26T16:16:13;15.80;99.90
16801;DHT22;8518;53.236;10.384;2022-10-26T16:18:40;15.70;99.90
16801;DHT22;8518;53.236;10.384;2022-10-26T16:21:05;15.60;99.90
16801;DHT22;8518;53.236;10.384;2022-10-26T16:23:31;15.60;99.90
16801;DHT22;8518;53.236;10.384;2022-10-26T16:25:56;15.50;99.90
16801;DHT22;8518;53.236;10.384;2022-10-26T16:28:22;15.40;99.90
16801;DHT22;8518;53.236;10.384;2022-10-26T16:30:48;15.30;99.90
16801;DHT22;8518;53.236;10.384;2022-10-26T16:33:13;15.30;99.90
16801;DHT22;8518;53.236;10.384;2022-10-26T16:35:39;15.20;99.90
16801;DHT22;8518;53.236;10.384;2022-10-26T16:38:05;15.10;99.90
16801;DHT22;8518;53.236;10.384;2022-10-26T16:40:30;15.10;99.90
16801;DHT22;8518;53.236;10.384;2022-10-26T16:42:56;15.00;99.90
16801;DHT22;8518;53.236;10.384;2022-10-26T16:45:21;15.00;99.90
16801;DHT22;8518;53.236;10.384;2022-10-26T16:47:47;15.00;99.90
16801;DHT22;8518;53.236;10.384;2022-10-26T16:50:13;14.90;99.90
16801;DHT22;8518;53.236;10.384;2022-10-26T16:52:39;14.80;99.90
16801;DHT22;8518;53.236;10.384;2022-10-26T16:55:06;14.70;99.90
16801;DHT22;8518;53.236;10.384;2022-10-26T16:57:34;14.70;99.90
16801;DHT22;8518;53.236;10.384;2022-10-26T17:00:00;14.70;99.90
16801;DHT22;8518;53.236;10.384;2022-10-26T17:02:26;14.60;99.90
16801;DHT22;8518;53.236;10.384;2022-10-26T17:04:52;14.60;99.90
16801;DHT22;8518;53.236;10.384;2022-10-26T17:07:17;14.60;99.90
16801;DHT22;8518;53.236;10.384;2022-10-26T17:09:43;14.60;99.90
16801;DHT22;8518;53.236;10.384;2022-10-26T17:12:08;14.50;99.90
16801;DHT22;8518;53.236;10.384;2022-10-26T17:14:36;14.50;99.90
16801;DHT22;8518;53.236;10.384;2022-10-26T17:17:02;14.40;99.90
16801;DHT22;8518;53.236;10.384;2022-10-26T17:19:27;14.40;99.90
16801;DHT22;8518;53.236;10.384;2022-10-26T17:21:53;14.30;99.90
16801;DHT22;8518;53.236;10.384;2022-10-26T17:24:18;14.30;99.90
16801;DHT22;8518;53.236;10.384;2022-10-26T17:26:44;14.20;99.90
16801;DHT22;8518;53.236;10.384;2022-10-26T17:29:12;14.20;99.90
16801;DHT22;8518;53.236;10.384;2022-10-26T17:31:38;14.10;99.90
16801;DHT22;8518;53.236;10.384;2022-10-26T17:34:03;14.10;99.90
16801;DHT22;8518;53.236;10.384;2022-10-26T17:36:29;14.10;99.90
16801;DHT22;8518;53.236;10.384;2022-10-26T17:38:56;14.00;99.90
16801;DHT22;8518;53.236;10.384;2022-10-26T17:41:23;14.00;99.90
16801;DHT22;8518;53.236;10.384;2022-10-26T17:43:48;13.90;99.90
16801;DHT22;8518;53.236;10.384;2022-10-26T17:46:16;13.90;99.90
16801;DHT22;8518;53.236;10.384;2022-10-26T17:48:43;13.80;99.90
16801;DHT22;8518;53.236;10.384;2022-10-26T17:51:18;13.80;99.90
16801;DHT22;8518;53.236;10.384;2022-10-26T17:53:48;13.80;99.90
16801;DHT22;8518;53.236;10.384;2022-10-26T17:56:19;13.70;99.90
16801;DHT22;8518;53.236;10.384;2022-10-26T17:58:50;13.70;99.90
16801;DHT22;8518;53.236;10.384;2022-10-26T18:01:16;13.70;99.90
16801;DHT22;8518;53.236;10.384;2022-10-26T18:03:42;13.60;99.90
16801;DHT22;8518;53.236;10.384;2022-10-26T18:06:08;13.60;99.90
16801;DHT22;8518;53.236;10.384;2022-10-26T18:08:35;13.60;99.90